Jeiseyville, Illinois
Current Conditions -  °F | °C
As of 9:55 AM on Friday 31 Oct 2014 (Local Time) from KTAZ Reporting Station
Scattered Clouds Scattered Clouds  
Wind Chill: 25°   Ceiling: Unl
Heat Index: 37°   Visibility: 10mi
Dew Point: 27°   Wind: 30mph
Humidity: 65%   Direction: 350°N
Pressure: 30.22"   Gusts: 37mph
Location:  39.5521°N, 89.3216°W
Report Text: KTAZ 311455Z AUTO 35026G32KT 10SM SCT036 03/M03 A3022 RMK AO2
Loading
Personal Weather Stations






























Interactive Weather Map
Tropical Storm Tracking
New forecast layout! Learn more

10-Day Weather Forecast

Advertisements
Track Severe Weather on mobile